Armadores I — SY8463 — position and weather

sailwx.info

Track history (hours):
 
Tides and Currents Weather Stations Pressure Air Temp Water Temp Dewpoint Dewpoint Depression Visibility Wind Speed Wind Dir Waves Ship Positions

Armadores I

Last reported at 2017-Jun-14 09:20 UTC. Time now 2017-Jun-26 14:07 UTC.
Position N 37°57' E 023°37'.
Warning: this ship's position is 12 days out of date.

Length 32 m; draft 5.3 m.

Type: Tug. MMSI: 240694000.

Date/timePositionNaut miles runAvg speedWind from/ knotsBaromVisibWave heightAir tempDewpointWater temp
2017-Jun-14 09:20N 37°57' E 023°37'0 0.8
2017-Jun-14 09:00N 37°57' E 023°36'3 5.2
2017-Jun-14 08:30N 37°58' E 023°33'0 0.7
2017-Jun-14 08:01N 37°58' E 023°33'0 0.0
2017-Jun-14 07:30N 37°58' E 023°33'1 1.3
2017-Jun-14 07:00N 37°58' E 023°33'1 1.1
2017-Jun-14 06:30N 37°59' E 023°33'3 6.3
2017-Jun-14 06:00N 37°57' E 023°36'0 0.6
2017-Jun-14 05:30N 37°57' E 023°37'1 1.5
2017-Jun-14 05:00N 37°57' E 023°36'1 2.4
2017-Jun-14 04:31N 37°56' E 023°36'1 2.9
2017-Jun-14 04:00N 37°57' E 023°37'0 0.0
2017-Jun-14 03:31N 37°57' E 023°37'0 0.0
2017-Jun-14 03:00N 37°57' E 023°37'0 0.0
2017-Jun-14 02:30N 37°57' E 023°37'0 0.0
2017-Jun-13 11:43N 37°57' E 023°37'1 3.4
2017-Jun-13 11:30N 37°57' E 023°36'0 0.9
2017-Jun-13 11:01N 37°57' E 023°35'0 0.8
2017-Jun-13 10:30N 37°57' E 023°36'1 1.3
2017-Jun-13 10:01N 37°58' E 023°36'0 0.8
2017-Jun-13 09:28N 37°57' E 023°37'0 0.0
2017-Jun-13 08:06N 37°57' E 023°37'0 0.0
2017-Jun-13 08:00N 37°57' E 023°37'0 0.0
2017-Jun-13 07:30N 37°57' E 023°37'0 0.0
2017-Jun-13 07:00N 37°57' E 023°37'0 0.0
2017-Jun-13 06:30N 37°57' E 023°37'0 0.1
2017-Jun-13 06:00N 37°57' E 023°37'0 0.1
2017-Jun-13 05:30N 37°57' E 023°37'1 1.8
2017-Jun-13 05:01N 37°57' E 023°36'1 1.8
2017-Jun-13 04:30N 37°57' E 023°37'0 0.0
2017-Jun-13 04:00N 37°57' E 023°37'0 0.0
2017-Jun-13 03:30N 37°57' E 023°37'0 0.0
2017-Jun-13 03:00N 37°57' E 023°37'0 0.0
2017-Jun-12 15:25N 37°58' E 023°37'0 0.6
2017-Jun-12 15:00N 37°57' E 023°36'1 2.9
2017-Jun-12 14:30N 37°56' E 023°36'2 1.5
2017-Jun-12 13:30N 37°57' E 023°37'0 0.0
2017-Jun-12 13:00N 37°57' E 023°37'0 0.0
2017-Jun-12 12:30N 37°57' E 023°37'1 1.5
2017-Jun-12 12:00N 37°57' E 023°36'1 1.2
2017-Jun-12 11:30N 37°57' E 023°36'1 1.9
2017-Jun-12 11:00N 37°57' E 023°37'0 0.0
2017-Jun-12 10:30N 37°57' E 023°37'0 0.0
2017-Jun-12 10:00N 37°57' E 023°37'0 0.0
2017-Jun-12 09:30N 37°57' E 023°37'0 0.0
2017-Jun-12 09:00N 37°57' E 023°37'0 0.0
2017-Jun-12 08:30N 37°57' E 023°37'0 0.0
2017-Jun-12 08:00N 37°57' E 023°37'0 0.0
2017-Jun-12 07:30N 37°57' E 023°37'0 0.0
2017-Jun-12 07:00N 37°57' E 023°37'0 0.0
2017-Jun-12 06:30N 37°57' E 023°37'0 0.0
2017-Jun-12 06:00N 37°57' E 023°37'0 0.0
2017-Jun-12 05:30N 37°57' E 023°37'0 0.0
2017-Jun-12 05:00N 37°57' E 023°37'0 0.7
2017-Jun-12 04:30N 37°58' E 023°36'1 2.0
2017-Jun-12 04:00N 37°57' E 023°36'1 2.0
2017-Jun-12 03:30N 37°57' E 023°37'0 0.0
2017-Jun-12 03:00N 37°57' E 023°37'0 0.0
2017-Jun-12 02:30N 37°57' E 023°37'1 0.0
2017-Jun-10 11:48N 37°57' E 023°35'0 0.6
2017-Jun-10 11:30N 37°57' E 023°35'1 2.2
2017-Jun-10 11:00N 37°57' E 023°36'1 1.8
2017-Jun-10 10:30N 37°57' E 023°36'0 0.4
2017-Jun-10 10:00N 37°57' E 023°37'0 0.0
2017-Jun-10 09:30N 37°57' E 023°37'0 0.0
2017-Jun-10 09:00N 37°57' E 023°37'0 0.0
2017-Jun-10 08:30N 37°57' E 023°37'0 0.0
2017-Jun-10 08:00N 37°57' E 023°37'0 0.0
2017-Jun-10 07:30N 37°57' E 023°37'0 0.0
2017-Jun-10 07:00N 37°57' E 023°37'0 0.0
2017-Jun-10 06:30N 37°57' E 023°37'0 0.0
2017-Jun-10 06:00N 37°57' E 023°37'0 0.0
2017-Jun-10 05:30N 37°57' E 023°37'0 0.0
2017-Jun-10 05:00N 37°57' E 023°37'0 0.0
2017-Jun-10 04:30N 37°57' E 023°37'0 0.0
2017-Jun-10 04:00N 37°57' E 023°37'0 0.0
2017-Jun-10 03:30N 37°57' E 023°37'2 3.3
2017-Jun-10 03:00N 37°56' E 023°36'510.2
2017-Jun-10 02:30N 37°52' E 023°40'510.1
2017-Jun-10 02:00N 37°47' E 023°43'5 9.4
2017-Jun-10 01:30N 37°43' E 023°47'5 9.5
2017-Jun-10 00:59N 37°41' E 023°52'42 9.7
2017-Jun-09 20:37N 37°32' E 024°44'1 9.5
2017-Jun-09 20:30N 37°32' E 024°45'5 9.6
2017-Jun-09 20:00N 37°32' E 024°51'510.0
2017-Jun-09 19:29N 37°32' E 024°58'510.3
2017-Jun-09 19:00N 37°31' E 025°04'510.6
2017-Jun-09 18:31N 37°30' E 025°11'510.4
2017-Jun-09 18:00N 37°28' E 025°17'2 4.4
2017-Jun-09 17:30N 37°28' E 025°20'0 0.0
2017-Jun-09 17:00N 37°28' E 025°20'0 0.0
2017-Jun-09 16:30N 37°28' E 025°20'0 0.0
2017-Jun-09 16:00N 37°28' E 025°20'0 0.0
2017-Jun-09 15:30N 37°28' E 025°20'0 0.0
2017-Jun-09 15:00N 37°28' E 025°20'0 0.0
2017-Jun-09 14:30N 37°28' E 025°20'0 0.0
2017-Jun-09 13:30N 37°28' E 025°20'0 0.0
2017-Jun-09 13:00N 37°28' E 025°20'0 0.0
2017-Jun-09 12:30N 37°28' E 025°20'0 0.0
2017-Jun-09 12:00N 37°28' E 025°20'0 0.0
2017-Jun-09 11:30N 37°28' E 025°20'0 0.0
2017-Jun-09 11:00N 37°28' E 025°20'0 0.0
2017-Jun-09 10:30N 37°28' E 025°20'0 0.0
2017-Jun-09 10:00N 37°28' E 025°20'0 0.0
2017-Jun-09 09:30N 37°28' E 025°20'0 0.0
2017-Jun-09 09:00N 37°28' E 025°20'0 0.0
2017-Jun-09 08:30N 37°28' E 025°20'0 0.0
2017-Jun-09 08:00N 37°28' E 025°20'0 0.0
2017-Jun-09 07:30N 37°28' E 025°20'0 0.0
2017-Jun-09 07:00N 37°28' E 025°20'0 0.0
2017-Jun-09 06:31N 37°28' E 025°20'0 0.0
2017-Jun-09 06:00N 37°28' E 025°20'0 0.0
2017-Jun-09 05:30N 37°28' E 025°20'0 0.0
2017-Jun-09 05:00N 37°28' E 025°20'0 0.0
2017-Jun-09 04:30N 37°28' E 025°20'0 0.0
2017-Jun-09 04:01N 37°28' E 025°20'0 0.5
2017-Jun-09 03:30N 37°28' E 025°19'0 0.5
2017-Jun-09 03:00N 37°28' E 025°20'0 0.0
2017-Jun-09 02:30N 37°28' E 025°20'0 0.0
2017-Jun-09 02:00N 37°28' E 025°20'0 0.0
2017-Jun-09 01:30N 37°28' E 025°20'0 0.0
2017-Jun-09 01:00N 37°28' E 025°20'0 0.0
2017-Jun-09 00:30N 37°28' E 025°20'0 0.0
2017-Jun-09 00:00N 37°28' E 025°20'0 0.0
2017-Jun-08 23:30N 37°28' E 025°20'0 0.0
2017-Jun-08 23:00N 37°28' E 025°20'0 0.0
2017-Jun-08 22:30N 37°28' E 025°20'0 0.0
2017-Jun-08 22:00N 37°28' E 025°20'0 0.0
2017-Jun-08 21:30N 37°28' E 025°20'0 0.0
2017-Jun-08 21:00N 37°28' E 025°20'0 0.0
2017-Jun-08 20:30N 37°28' E 025°20'0 0.0
2017-Jun-08 20:00N 37°28' E 025°20'0 0.0
2017-Jun-08 19:30N 37°28' E 025°20'0 0.0
2017-Jun-08 19:00N 37°28' E 025°20'0 0.0
2017-Jun-08 18:30N 37°28' E 025°20'0 0.0
2017-Jun-08 18:00N 37°28' E 025°20'0 0.0
2017-Jun-08 17:31N 37°28' E 025°20'0 0.0
2017-Jun-08 17:00N 37°28' E 025°20'0 0.0
2017-Jun-08 16:30N 37°28' E 025°20'0 0.0
2017-Jun-08 16:00N 37°28' E 025°20'0 0.0
2017-Jun-08 15:30N 37°28' E 025°20'0 0.0
2017-Jun-08 15:00N 37°28' E 025°20'0 0.0
2017-Jun-08 14:30N 37°28' E 025°20'0 0.0
2017-Jun-08 13:30N 37°28' E 025°20'0 0.0
2017-Jun-08 13:00N 37°28' E 025°20'0 0.0
2017-Jun-08 12:30N 37°28' E 025°20'0 0.0
2017-Jun-08 12:00N 37°28' E 025°20'0 0.0
2017-Jun-08 11:30N 37°28' E 025°20'0 0.0
2017-Jun-08 11:00N 37°28' E 025°20'0 0.0
2017-Jun-08 10:30N 37°28' E 025°20'0 0.0
2017-Jun-08 10:00N 37°28' E 025°20'0 0.0
2017-Jun-08 09:30N 37°28' E 025°20'0 0.0
2017-Jun-08 09:00N 37°28' E 025°20'0 0.0
2017-Jun-08 08:30N 37°28' E 025°20'0 0.0
2017-Jun-08 08:00N 37°28' E 025°20'0 0.0
2017-Jun-08 07:30N 37°28' E 025°20'0 0.0
2017-Jun-08 07:00N 37°28' E 025°20'0 0.0
2017-Jun-08 06:30N 37°28' E 025°20'0 0.0
2017-Jun-08 06:00N 37°28' E 025°20'0 0.0
2017-Jun-08 05:30N 37°28' E 025°20'0 0.0
2017-Jun-08 05:00N 37°28' E 025°20'0 0.0
2017-Jun-08 04:30N 37°28' E 025°20'0 0.4
2017-Jun-08 04:00N 37°28' E 025°20'0 0.4
2017-Jun-08 03:30N 37°28' E 025°20'0 0.0
2017-Jun-08 03:00N 37°28' E 025°20'0 0.0
2017-Jun-08 02:30N 37°28' E 025°20'0 0.0
2017-Jun-08 02:00N 37°28' E 025°20'0 0.0
2017-Jun-08 01:30N 37°28' E 025°20'0 0.0
2017-Jun-08 01:00N 37°28' E 025°20'0 0.0
2017-Jun-08 00:30N 37°28' E 025°20'0 0.0
2017-Jun-08 00:00N 37°28' E 025°20'0 0.0
2017-Jun-07 23:30N 37°28' E 025°20'0 0.0
2017-Jun-07 23:00N 37°28' E 025°20'0 0.0
2017-Jun-07 22:30N 37°28' E 025°20'0 0.0
2017-Jun-07 22:00N 37°28' E 025°20'0 0.0
2017-Jun-07 21:30N 37°28' E 025°20'0 0.0
2017-Jun-07 21:00N 37°28' E 025°20'0 0.0
2017-Jun-07 20:30N 37°28' E 025°20'0 0.0
2017-Jun-07 20:00N 37°28' E 025°20'0 0.0
2017-Jun-07 19:30N 37°28' E 025°20'0 0.0
2017-Jun-07 19:00N 37°28' E 025°20'0 0.0
2017-Jun-07 18:30N 37°28' E 025°20'0 0.0
2017-Jun-07 18:00N 37°28' E 025°20'0 0.0
2017-Jun-07 17:30N 37°28' E 025°20'0 0.0
2017-Jun-07 17:00N 37°28' E 025°20'0 0.0
2017-Jun-07 16:30N 37°28' E 025°20'0 0.0
2017-Jun-07 16:00N 37°28' E 025°20'0 0.0
2017-Jun-07 15:30N 37°28' E 025°20'0 0.0
2017-Jun-07 15:00N 37°28' E 025°20'0 0.0
2017-Jun-07 14:00N 37°28' E 025°20'0 0.0
2017-Jun-07 13:30N 37°28' E 025°20'0 0.0
2017-Jun-07 13:00N 37°28' E 025°20'0 0.0
2017-Jun-07 12:30N 37°28' E 025°20'0 0.0
2017-Jun-07 12:00N 37°28' E 025°20'0 0.0
2017-Jun-07 11:30N 37°28' E 025°20'0 0.0
2017-Jun-07 11:00N 37°28' E 025°20'0 0.0
2017-Jun-07 10:30N 37°28' E 025°20'0 0.0
2017-Jun-07 10:00N 37°28' E 025°20'0 0.0
2017-Jun-07 09:30N 37°28' E 025°20'0 0.0
2017-Jun-07 09:00N 37°28' E 025°20'0 0.0
2017-Jun-07 08:30N 37°28' E 025°20'0 0.0
2017-Jun-07 08:00N 37°28' E 025°20'0 0.0
2017-Jun-07 07:30N 37°28' E 025°20'0 0.0
2017-Jun-07 07:00N 37°28' E 025°20'0 0.0
2017-Jun-07 06:30N 37°28' E 025°20'0 0.0
2017-Jun-07 06:00N 37°28' E 025°20'0 0.0
2017-Jun-07 05:30N 37°28' E 025°20'0 0.0
2017-Jun-07 05:00N 37°28' E 025°20'0 0.0
2017-Jun-07 04:30N 37°28' E 025°20'0 0.0
2017-Jun-07 04:00N 37°28' E 025°20'0 0.8
2017-Jun-07 03:30N 37°28' E 025°19'0 0.8
2017-Jun-07 03:00N 37°28' E 025°20'0 0.0
2017-Jun-07 02:30N 37°28' E 025°20'0 0.0
2017-Jun-07 02:00N 37°28' E 025°20'0 0.0
2017-Jun-07 01:30N 37°28' E 025°20'0 0.0
2017-Jun-07 01:00N 37°28' E 025°20'0 0.0
2017-Jun-07 00:30N 37°28' E 025°20'0 0.0
2017-Jun-07 00:00N 37°28' E 025°20'0 0.0
2017-Jun-06 23:30N 37°28' E 025°20'0 0.0
2017-Jun-06 23:00N 37°28' E 025°20'0 0.0
2017-Jun-06 22:30N 37°28' E 025°20'0 0.0
2017-Jun-06 22:00N 37°28' E 025°20'0 0.0
2017-Jun-06 21:30N 37°28' E 025°20'0 0.0
2017-Jun-06 21:00N 37°28' E 025°20'0 0.0
2017-Jun-06 20:30N 37°28' E 025°20'0 0.0
2017-Jun-06 20:01N 37°28' E 025°20'0 0.0
2017-Jun-06 19:30N 37°28' E 025°20'0 0.0
2017-Jun-06 19:00N 37°28' E 025°20'0 0.0
2017-Jun-06 18:30N 37°28' E 025°20'0 0.0
2017-Jun-06 18:00N 37°28' E 025°20'0 0.0
2017-Jun-06 17:30N 37°28' E 025°20'0 0.0
2017-Jun-06 17:00N 37°28' E 025°20'0 0.6
2017-Jun-06 16:30N 37°28' E 025°19'0 0.4
2017-Jun-06 16:00N 37°28' E 025°19'0 0.4
2017-Jun-06 15:30N 37°28' E 025°20'0 0.0
2017-Jun-06 15:00N 37°28' E 025°20'0 0.0
2017-Jun-06 14:30N 37°28' E 025°20'0 0.0
2017-Jun-06 13:30N 37°28' E 025°20'0 0.0
2017-Jun-06 13:00N 37°28' E 025°20'0 0.0
2017-Jun-06 12:30N 37°28' E 025°20'0 0.0
2017-Jun-06 12:00N 37°28' E 025°20'0 0.0
2017-Jun-06 11:30N 37°28' E 025°20'0 0.0
2017-Jun-06 11:00N 37°28' E 025°20'0 0.0
2017-Jun-06 10:30N 37°28' E 025°20'0 0.0
2017-Jun-06 10:00N 37°28' E 025°20'0 0.0
2017-Jun-06 09:30N 37°28' E 025°20'0 0.0
2017-Jun-06 09:00N 37°28' E 025°20'0 0.0
2017-Jun-06 08:30N 37°28' E 025°20'0 0.0
2017-Jun-06 08:00N 37°28' E 025°20'0 0.0
2017-Jun-06 07:30N 37°28' E 025°20'0 0.0
2017-Jun-06 07:00N 37°28' E 025°20'0 0.0
2017-Jun-06 06:30N 37°28' E 025°20'0 0.0
2017-Jun-06 06:00N 37°28' E 025°20'0 0.0
2017-Jun-06 05:30N 37°28' E 025°20'0 0.0
2017-Jun-06 05:00N 37°28' E 025°20'0 0.0
2017-Jun-06 04:30N 37°28' E 025°20'0 0.0
2017-Jun-06 04:00N 37°28' E 025°20'0 0.7
2017-Jun-06 03:30N 37°28' E 025°19'0 0.7
2017-Jun-06 03:00N 37°28' E 025°20'0 0.0
2017-Jun-06 02:30N 37°28' E 025°20'0 0.0
2017-Jun-06 02:00N 37°28' E 025°20'0 0.0
2017-Jun-06 01:30N 37°28' E 025°20'0 0.0
2017-Jun-06 01:00N 37°28' E 025°20'0 0.0
2017-Jun-06 00:30N 37°28' E 025°20'0 0.0
2017-Jun-06 00:00N 37°28' E 025°20'0 0.0
2017-Jun-05 23:30N 37°28' E 025°20'0 0.0
2017-Jun-05 23:00N 37°28' E 025°20'0 0.0
2017-Jun-05 22:30N 37°28' E 025°20'0 0.0
2017-Jun-05 22:00N 37°28' E 025°20'0 0.0
2017-Jun-05 21:30N 37°28' E 025°20'0 0.0
2017-Jun-05 21:00N 37°28' E 025°20'0 0.0
2017-Jun-05 20:30N 37°28' E 025°20'0 0.0
2017-Jun-05 20:00N 37°28' E 025°20'0 0.4
2017-Jun-05 19:30N 37°28' E 025°19'0 0.4
2017-Jun-05 19:00N 37°28' E 025°20'0 0.0
2017-Jun-05 18:30N 37°28' E 025°20'0 0.0
2017-Jun-05 18:00N 37°28' E 025°20'0 0.0
2017-Jun-05 17:30N 37°28' E 025°20'0 0.0
2017-Jun-05 17:00N 37°28' E 025°20'0 0.0
2017-Jun-05 16:30N 37°28' E 025°20'0 0.0
2017-Jun-05 16:00N 37°28' E 025°20'0 0.0
2017-Jun-05 15:30N 37°28' E 025°20'0 0.0
2017-Jun-05 15:00N 37°28' E 025°20'0 0.2
2017-Jun-05 14:00N 37°28' E 025°19'0 0.4
2017-Jun-05 13:30N 37°28' E 025°20'0 0.0
2017-Jun-05 13:00N 37°28' E 025°20'0 0.0
2017-Jun-05 12:30N 37°28' E 025°20'0 0.0
2017-Jun-05 12:00N 37°28' E 025°20'0 0.0
2017-Jun-05 11:30N 37°28' E 025°20'0 0.0
2017-Jun-05 11:00N 37°28' E 025°20'0 0.0
2017-Jun-05 10:30N 37°28' E 025°20'0 0.0
2017-Jun-05 10:00N 37°28' E 025°20'0 0.0
2017-Jun-05 09:30N 37°28' E 025°20'0 0.0
2017-Jun-05 09:00N 37°28' E 025°20'0 0.0
2017-Jun-05 08:30N 37°28' E 025°20'0 0.0
2017-Jun-05 08:00N 37°28' E 025°20'0 0.0
2017-Jun-05 07:30N 37°28' E 025°20'0 0.0
2017-Jun-05 07:00N 37°28' E 025°20'0 0.0
2017-Jun-05 03:37N 37°28' E 025°20'0 0.0
2017-Jun-05 03:30N 37°28' E 025°20'0 0.0
2017-Jun-05 03:00N 37°28' E 025°20'0 0.0
2017-Jun-05 02:30N 37°28' E 025°20'0 0.0
2017-Jun-05 02:00N 37°28' E 025°20'0 0.0
2017-Jun-05 01:30N 37°28' E 025°20'0 0.0
2017-Jun-05 01:00N 37°28' E 025°20'0 0.0
2017-Jun-05 00:30N 37°28' E 025°20'0 0.0
2017-Jun-05 00:00N 37°28' E 025°20'0 0.0
2017-Jun-04 23:30N 37°28' E 025°20'0 0.0
2017-Jun-04 23:00N 37°28' E 025°20'0 0.0
2017-Jun-04 22:30N 37°28' E 025°20'0 0.0
2017-Jun-04 22:00N 37°28' E 025°20'0 0.0
2017-Jun-04 21:30N 37°28' E 025°20'0 0.0
2017-Jun-04 21:00N 37°28' E 025°20'0 0.0
2017-Jun-04 20:30N 37°28' E 025°20'0 0.0
2017-Jun-04 20:00N 37°28' E 025°20'0 0.0
2017-Jun-04 19:30N 37°28' E 025°20'0 0.0
2017-Jun-04 19:00N 37°28' E 025°20'0 0.0
2017-Jun-04 18:30N 37°28' E 025°20'0 0.0
2017-Jun-04 18:00N 37°28' E 025°20'0 0.0
2017-Jun-04 17:30N 37°28' E 025°20'0 0.0
2017-Jun-04 17:00N 37°28' E 025°20'0 0.0
2017-Jun-04 16:30N 37°28' E 025°20'0 0.0
2017-Jun-04 16:00N 37°28' E 025°20'0 0.0
2017-Jun-04 15:30N 37°28' E 025°20'0 0.0
2017-Jun-04 15:00N 37°28' E 025°20'0 0.0
2017-Jun-04 14:00N 37°28' E 025°20'0 0.0
2017-Jun-04 13:30N 37°28' E 025°20'0 0.0
2017-Jun-04 13:00N 37°28' E 025°20'0 0.0
2017-Jun-04 12:30N 37°28' E 025°20'0 0.0
2017-Jun-04 12:00N 37°28' E 025°20'0 0.0
2017-Jun-04 11:30N 37°28' E 025°20'0 0.0
2017-Jun-04 11:00N 37°28' E 025°20'0 0.0
2017-Jun-04 10:30N 37°28' E 025°20'0 0.0
2017-Jun-04 10:00N 37°28' E 025°20'0 0.6
2017-Jun-04 09:30N 37°28' E 025°19'  
Track history (hours):
 
Tides and Currents Weather Stations Pressure Air Temp Water Temp Dewpoint Dewpoint Depression Visibility Wind Speed Wind Dir Waves Ship Positions

Armadores I

Last reported at 2017-Jun-14 09:20 UTC. Time now 2017-Jun-26 14:07 UTC.
Position N 37°57' E 023°37'.
Warning: this ship's position is 12 days out of date.

Length 32 m; draft 5.3 m.

Type: Tug. MMSI: 240694000.

Date/timePositionNaut miles runAvg speedWind from/ knotsBaromVisibWave heightAir tempDewpointWater temp
2017-Jun-14 09:20N 37°57' E 023°37'0 0.8
2017-Jun-14 09:00N 37°57' E 023°36'3 5.2
2017-Jun-14 08:30N 37°58' E 023°33'0 0.7
2017-Jun-14 08:01N 37°58' E 023°33'0 0.0
2017-Jun-14 07:30N 37°58' E 023°33'1 1.3
2017-Jun-14 07:00N 37°58' E 023°33'1 1.1
2017-Jun-14 06:30N 37°59' E 023°33'3 6.3
2017-Jun-14 06:00N 37°57' E 023°36'0 0.6
2017-Jun-14 05:30N 37°57' E 023°37'1 1.5
2017-Jun-14 05:00N 37°57' E 023°36'1 2.4
2017-Jun-14 04:31N 37°56' E 023°36'1 2.9
2017-Jun-14 04:00N 37°57' E 023°37'0 0.0
2017-Jun-14 03:31N 37°57' E 023°37'0 0.0
2017-Jun-14 03:00N 37°57' E 023°37'0 0.0
2017-Jun-14 02:30N 37°57' E 023°37'0 0.0
2017-Jun-13 11:43N 37°57' E 023°37'1 3.4
2017-Jun-13 11:30N 37°57' E 023°36'0 0.9
2017-Jun-13 11:01N 37°57' E 023°35'0 0.8
2017-Jun-13 10:30N 37°57' E 023°36'1 1.3
2017-Jun-13 10:01N 37°58' E 023°36'0 0.8
2017-Jun-13 09:28N 37°57' E 023°37'0 0.0
2017-Jun-13 08:06N 37°57' E 023°37'0 0.0
2017-Jun-13 08:00N 37°57' E 023°37'0 0.0
2017-Jun-13 07:30N 37°57' E 023°37'0 0.0
2017-Jun-13 07:00N 37°57' E 023°37'0 0.0
2017-Jun-13 06:30N 37°57' E 023°37'0 0.1
2017-Jun-13 06:00N 37°57' E 023°37'0 0.1
2017-Jun-13 05:30N 37°57' E 023°37'1 1.8
2017-Jun-13 05:01N 37°57' E 023°36'1 1.8
2017-Jun-13 04:30N 37°57' E 023°37'0 0.0
2017-Jun-13 04:00N 37°57' E 023°37'0 0.0
2017-Jun-13 03:30N 37°57' E 023°37'0 0.0
2017-Jun-13 03:00N 37°57' E 023°37'0 0.0
2017-Jun-12 15:25N 37°58' E 023°37'0 0.6
2017-Jun-12 15:00N 37°57' E 023°36'1 2.9
2017-Jun-12 14:30N 37°56' E 023°36'2 1.5
2017-Jun-12 13:30N 37°57' E 023°37'0 0.0
2017-Jun-12 13:00N 37°57' E 023°37'0 0.0
2017-Jun-12 12:30N 37°57' E 023°37'1 1.5
2017-Jun-12 12:00N 37°57' E 023°36'1 1.2
2017-Jun-12 11:30N 37°57' E 023°36'1 1.9
2017-Jun-12 11:00N 37°57' E 023°37'0 0.0
2017-Jun-12 10:30N 37°57' E 023°37'0 0.0
2017-Jun-12 10:00N 37°57' E 023°37'0 0.0
2017-Jun-12 09:30N 37°57' E 023°37'0 0.0
2017-Jun-12 09:00N 37°57' E 023°37'0 0.0
2017-Jun-12 08:30N 37°57' E 023°37'0 0.0
2017-Jun-12 08:00N 37°57' E 023°37'0 0.0
2017-Jun-12 07:30N 37°57' E 023°37'0 0.0
2017-Jun-12 07:00N 37°57' E 023°37'0 0.0
2017-Jun-12 06:30N 37°57' E 023°37'0 0.0
2017-Jun-12 06:00N 37°57' E 023°37'0 0.0
2017-Jun-12 05:30N 37°57' E 023°37'0 0.0
2017-Jun-12 05:00N 37°57' E 023°37'0 0.7
2017-Jun-12 04:30N 37°58' E 023°36'1 2.0
2017-Jun-12 04:00N 37°57' E 023°36'1 2.0
2017-Jun-12 03:30N 37°57' E 023°37'0 0.0
2017-Jun-12 03:00N 37°57' E 023°37'0 0.0
2017-Jun-12 02:30N 37°57' E 023°37'1 0.0
2017-Jun-10 11:48N 37°57' E 023°35'0 0.6
2017-Jun-10 11:30N 37°57' E 023°35'1 2.2
2017-Jun-10 11:00N 37°57' E 023°36'1 1.8
2017-Jun-10 10:30N 37°57' E 023°36'0 0.4
2017-Jun-10 10:00N 37°57' E 023°37'0 0.0
2017-Jun-10 09:30N 37°57' E 023°37'0 0.0
2017-Jun-10 09:00N 37°57' E 023°37'0 0.0
2017-Jun-10 08:30N 37°57' E 023°37'0 0.0
2017-Jun-10 08:00N 37°57' E 023°37'0 0.0
2017-Jun-10 07:30N 37°57' E 023°37'0 0.0
2017-Jun-10 07:00N 37°57' E 023°37'0 0.0
2017-Jun-10 06:30N 37°57' E 023°37'0 0.0
2017-Jun-10 06:00N 37°57' E 023°37'0 0.0
2017-Jun-10 05:30N 37°57' E 023°37'0 0.0
2017-Jun-10 05:00N 37°57' E 023°37'0 0.0
2017-Jun-10 04:30N 37°57' E 023°37'0 0.0
2017-Jun-10 04:00N 37°57' E 023°37'0 0.0
2017-Jun-10 03:30N 37°57' E 023°37'2 3.3
2017-Jun-10 03:00N 37°56' E 023°36'510.2
2017-Jun-10 02:30N 37°52' E 023°40'510.1
2017-Jun-10 02:00N 37°47' E 023°43'5 9.4
2017-Jun-10 01:30N 37°43' E 023°47'5 9.5
2017-Jun-10 00:59N 37°41' E 023°52'42 9.7
2017-Jun-09 20:37N 37°32' E 024°44'1 9.5
2017-Jun-09 20:30N 37°32' E 024°45'5 9.6
2017-Jun-09 20:00N 37°32' E 024°51'510.0
2017-Jun-09 19:29N 37°32' E 024°58'510.3
2017-Jun-09 19:00N 37°31' E 025°04'510.6
2017-Jun-09 18:31N 37°30' E 025°11'510.4
2017-Jun-09 18:00N 37°28' E 025°17'2 4.4
2017-Jun-09 17:30N 37°28' E 025°20'0 0.0
2017-Jun-09 17:00N 37°28' E 025°20'0 0.0
2017-Jun-09 16:30N 37°28' E 025°20'0 0.0
2017-Jun-09 16:00N 37°28' E 025°20'0 0.0
2017-Jun-09 15:30N 37°28' E 025°20'0 0.0
2017-Jun-09 15:00N 37°28' E 025°20'0 0.0
2017-Jun-09 14:30N 37°28' E 025°20'0 0.0
2017-Jun-09 13:30N 37°28' E 025°20'0 0.0
2017-Jun-09 13:00N 37°28' E 025°20'0 0.0
2017-Jun-09 12:30N 37°28' E 025°20'0 0.0
2017-Jun-09 12:00N 37°28' E 025°20'0 0.0
2017-Jun-09 11:30N 37°28' E 025°20'0 0.0
2017-Jun-09 11:00N 37°28' E 025°20'0 0.0
2017-Jun-09 10:30N 37°28' E 025°20'0 0.0
2017-Jun-09 10:00N 37°28' E 025°20'0 0.0
2017-Jun-09 09:30N 37°28' E 025°20'0 0.0
2017-Jun-09 09:00N 37°28' E 025°20'0 0.0
2017-Jun-09 08:30N 37°28' E 025°20'0 0.0
2017-Jun-09 08:00N 37°28' E 025°20'0 0.0
2017-Jun-09 07:30N 37°28' E 025°20'0 0.0
2017-Jun-09 07:00N 37°28' E 025°20'0 0.0
2017-Jun-09 06:31N 37°28' E 025°20'0 0.0
2017-Jun-09 06:00N 37°28' E 025°20'0 0.0
2017-Jun-09 05:30N 37°28' E 025°20'0 0.0
2017-Jun-09 05:00N 37°28' E 025°20'0 0.0
2017-Jun-09 04:30N 37°28' E 025°20'0 0.0
2017-Jun-09 04:01N 37°28' E 025°20'0 0.5
2017-Jun-09 03:30N 37°28' E 025°19'0 0.5
2017-Jun-09 03:00N 37°28' E 025°20'0 0.0
2017-Jun-09 02:30N 37°28' E 025°20'0 0.0
2017-Jun-09 02:00N 37°28' E 025°20'0 0.0
2017-Jun-09 01:30N 37°28' E 025°20'0 0.0
2017-Jun-09 01:00N 37°28' E 025°20'0 0.0
2017-Jun-09 00:30N 37°28' E 025°20'0 0.0
2017-Jun-09 00:00N 37°28' E 025°20'0 0.0
2017-Jun-08 23:30N 37°28' E 025°20'0 0.0
2017-Jun-08 23:00N 37°28' E 025°20'0 0.0
2017-Jun-08 22:30N 37°28' E 025°20'0 0.0
2017-Jun-08 22:00N 37°28' E 025°20'0 0.0
2017-Jun-08 21:30N 37°28' E 025°20'0 0.0
2017-Jun-08 21:00N 37°28' E 025°20'0 0.0
2017-Jun-08 20:30N 37°28' E 025°20'0 0.0
2017-Jun-08 20:00N 37°28' E 025°20'0 0.0
2017-Jun-08 19:30N 37°28' E 025°20'0 0.0
2017-Jun-08 19:00N 37°28' E 025°20'0 0.0
2017-Jun-08 18:30N 37°28' E 025°20'0 0.0
2017-Jun-08 18:00N 37°28' E 025°20'0 0.0
2017-Jun-08 17:31N 37°28' E 025°20'0 0.0
2017-Jun-08 17:00N 37°28' E 025°20'0 0.0
2017-Jun-08 16:30N 37°28' E 025°20'0 0.0
2017-Jun-08 16:00N 37°28' E 025°20'0 0.0
2017-Jun-08 15:30N 37°28' E 025°20'0 0.0
2017-Jun-08 15:00N 37°28' E 025°20'0 0.0
2017-Jun-08 14:30N 37°28' E 025°20'0 0.0
2017-Jun-08 13:30N 37°28' E 025°20'0 0.0
2017-Jun-08 13:00N 37°28' E 025°20'0 0.0
2017-Jun-08 12:30N 37°28' E 025°20'0 0.0
2017-Jun-08 12:00N 37°28' E 025°20'0 0.0
2017-Jun-08 11:30N 37°28' E 025°20'0 0.0
2017-Jun-08 11:00N 37°28' E 025°20'0 0.0
2017-Jun-08 10:30N 37°28' E 025°20'0 0.0
2017-Jun-08 10:00N 37°28' E 025°20'0 0.0
2017-Jun-08 09:30N 37°28' E 025°20'0 0.0
2017-Jun-08 09:00N 37°28' E 025°20'0 0.0
2017-Jun-08 08:30N 37°28' E 025°20'0 0.0
2017-Jun-08 08:00N 37°28' E 025°20'0 0.0
2017-Jun-08 07:30N 37°28' E 025°20'0 0.0
2017-Jun-08 07:00N 37°28' E 025°20'0 0.0
2017-Jun-08 06:30N 37°28' E 025°20'0 0.0
2017-Jun-08 06:00N 37°28' E 025°20'0 0.0
2017-Jun-08 05:30N 37°28' E 025°20'0 0.0
2017-Jun-08 05:00N 37°28' E 025°20'0 0.0
2017-Jun-08 04:30N 37°28' E 025°20'0 0.4
2017-Jun-08 04:00N 37°28' E 025°20'0 0.4
2017-Jun-08 03:30N 37°28' E 025°20'0 0.0
2017-Jun-08 03:00N 37°28' E 025°20'0 0.0
2017-Jun-08 02:30N 37°28' E 025°20'0 0.0
2017-Jun-08 02:00N 37°28' E 025°20'0 0.0
2017-Jun-08 01:30N 37°28' E 025°20'0 0.0
2017-Jun-08 01:00N 37°28' E 025°20'0 0.0
2017-Jun-08 00:30N 37°28' E 025°20'0 0.0
2017-Jun-08 00:00N 37°28' E 025°20'0 0.0
2017-Jun-07 23:30N 37°28' E 025°20'0 0.0
2017-Jun-07 23:00N 37°28' E 025°20'0 0.0
2017-Jun-07 22:30N 37°28' E 025°20'0 0.0
2017-Jun-07 22:00N 37°28' E 025°20'0 0.0
2017-Jun-07 21:30N 37°28' E 025°20'0 0.0
2017-Jun-07 21:00N 37°28' E 025°20'0 0.0
2017-Jun-07 20:30N 37°28' E 025°20'0 0.0
2017-Jun-07 20:00N 37°28' E 025°20'0 0.0
2017-Jun-07 19:30N 37°28' E 025°20'0 0.0
2017-Jun-07 19:00N 37°28' E 025°20'0 0.0
2017-Jun-07 18:30N 37°28' E 025°20'0 0.0
2017-Jun-07 18:00N 37°28' E 025°20'0 0.0
2017-Jun-07 17:30N 37°28' E 025°20'0 0.0
2017-Jun-07 17:00N 37°28' E 025°20'0 0.0
2017-Jun-07 16:30N 37°28' E 025°20'0 0.0
2017-Jun-07 16:00N 37°28' E 025°20'0 0.0
2017-Jun-07 15:30N 37°28' E 025°20'0 0.0
2017-Jun-07 15:00N 37°28' E 025°20'0 0.0
2017-Jun-07 14:00N 37°28' E 025°20'0 0.0
2017-Jun-07 13:30N 37°28' E 025°20'0 0.0
2017-Jun-07 13:00N 37°28' E 025°20'0 0.0
2017-Jun-07 12:30N 37°28' E 025°20'0 0.0
2017-Jun-07 12:00N 37°28' E 025°20'0 0.0
2017-Jun-07 11:30N 37°28' E 025°20'0 0.0
2017-Jun-07 11:00N 37°28' E 025°20'0 0.0
2017-Jun-07 10:30N 37°28' E 025°20'0 0.0
2017-Jun-07 10:00N 37°28' E 025°20'0 0.0
2017-Jun-07 09:30N 37°28' E 025°20'0 0.0
2017-Jun-07 09:00N 37°28' E 025°20'0 0.0
2017-Jun-07 08:30N 37°28' E 025°20'0 0.0
2017-Jun-07 08:00N 37°28' E 025°20'0 0.0
2017-Jun-07 07:30N 37°28' E 025°20'0 0.0
2017-Jun-07 07:00N 37°28' E 025°20'0 0.0
2017-Jun-07 06:30N 37°28' E 025°20'0 0.0
2017-Jun-07 06:00N 37°28' E 025°20'0 0.0
2017-Jun-07 05:30N 37°28' E 025°20'0 0.0
2017-Jun-07 05:00N 37°28' E 025°20'0 0.0
2017-Jun-07 04:30N 37°28' E 025°20'0 0.0
2017-Jun-07 04:00N 37°28' E 025°20'0 0.8
2017-Jun-07 03:30N 37°28' E 025°19'0 0.8
2017-Jun-07 03:00N 37°28' E 025°20'0 0.0
2017-Jun-07 02:30N 37°28' E 025°20'0 0.0
2017-Jun-07 02:00N 37°28' E 025°20'0 0.0
2017-Jun-07 01:30N 37°28' E 025°20'0 0.0
2017-Jun-07 01:00N 37°28' E 025°20'0 0.0
2017-Jun-07 00:30N 37°28' E 025°20'0 0.0
2017-Jun-07 00:00N 37°28' E 025°20'0 0.0
2017-Jun-06 23:30N 37°28' E 025°20'0 0.0
2017-Jun-06 23:00N 37°28' E 025°20'0 0.0
2017-Jun-06 22:30N 37°28' E 025°20'0 0.0
2017-Jun-06 22:00N 37°28' E 025°20'0 0.0
2017-Jun-06 21:30N 37°28' E 025°20'0 0.0
2017-Jun-06 21:00N 37°28' E 025°20'0 0.0
2017-Jun-06 20:30N 37°28' E 025°20'0 0.0
2017-Jun-06 20:01N 37°28' E 025°20'0 0.0
2017-Jun-06 19:30N 37°28' E 025°20'0 0.0
2017-Jun-06 19:00N 37°28' E 025°20'0 0.0
2017-Jun-06 18:30N 37°28' E 025°20'0 0.0
2017-Jun-06 18:00N 37°28' E 025°20'0 0.0
2017-Jun-06 17:30N 37°28' E 025°20'0 0.0
2017-Jun-06 17:00N 37°28' E 025°20'0 0.6
2017-Jun-06 16:30N 37°28' E 025°19'0 0.4
2017-Jun-06 16:00N 37°28' E 025°19'0 0.4
2017-Jun-06 15:30N 37°28' E 025°20'0 0.0
2017-Jun-06 15:00N 37°28' E 025°20'0 0.0
2017-Jun-06 14:30N 37°28' E 025°20'0 0.0
2017-Jun-06 13:30N 37°28' E 025°20'0 0.0
2017-Jun-06 13:00N 37°28' E 025°20'0 0.0
2017-Jun-06 12:30N 37°28' E 025°20'0 0.0
2017-Jun-06 12:00N 37°28' E 025°20'0 0.0
2017-Jun-06 11:30N 37°28' E 025°20'0 0.0
2017-Jun-06 11:00N 37°28' E 025°20'0 0.0
2017-Jun-06 10:30N 37°28' E 025°20'0 0.0
2017-Jun-06 10:00N 37°28' E 025°20'0 0.0
2017-Jun-06 09:30N 37°28' E 025°20'0 0.0
2017-Jun-06 09:00N 37°28' E 025°20'0 0.0
2017-Jun-06 08:30N 37°28' E 025°20'0 0.0
2017-Jun-06 08:00N 37°28' E 025°20'0 0.0
2017-Jun-06 07:30N 37°28' E 025°20'0 0.0
2017-Jun-06 07:00N 37°28' E 025°20'0 0.0
2017-Jun-06 06:30N 37°28' E 025°20'0 0.0
2017-Jun-06 06:00N 37°28' E 025°20'0 0.0
2017-Jun-06 05:30N 37°28' E 025°20'0 0.0
2017-Jun-06 05:00N 37°28' E 025°20'0 0.0
2017-Jun-06 04:30N 37°28' E 025°20'0 0.0
2017-Jun-06 04:00N 37°28' E 025°20'0 0.7
2017-Jun-06 03:30N 37°28' E 025°19'0 0.7
2017-Jun-06 03:00N 37°28' E 025°20'0 0.0
2017-Jun-06 02:30N 37°28' E 025°20'0 0.0
2017-Jun-06 02:00N 37°28' E 025°20'0 0.0
2017-Jun-06 01:30N 37°28' E 025°20'0 0.0
2017-Jun-06 01:00N 37°28' E 025°20'0 0.0
2017-Jun-06 00:30N 37°28' E 025°20'0 0.0
2017-Jun-06 00:00N 37°28' E 025°20'0 0.0
2017-Jun-05 23:30N 37°28' E 025°20'0 0.0
2017-Jun-05 23:00N 37°28' E 025°20'0 0.0
2017-Jun-05 22:30N 37°28' E 025°20'0 0.0
2017-Jun-05 22:00N 37°28' E 025°20'0 0.0
2017-Jun-05 21:30N 37°28' E 025°20'0 0.0
2017-Jun-05 21:00N 37°28' E 025°20'0 0.0
2017-Jun-05 20:30N 37°28' E 025°20'0 0.0
2017-Jun-05 20:00N 37°28' E 025°20'0 0.4
2017-Jun-05 19:30N 37°28' E 025°19'0 0.4
2017-Jun-05 19:00N 37°28' E 025°20'0 0.0
2017-Jun-05 18:30N 37°28' E 025°20'0 0.0
2017-Jun-05 18:00N 37°28' E 025°20'0 0.0
2017-Jun-05 17:30N 37°28' E 025°20'0 0.0
2017-Jun-05 17:00N 37°28' E 025°20'0 0.0
2017-Jun-05 16:30N 37°28' E 025°20'0 0.0
2017-Jun-05 16:00N 37°28' E 025°20'0 0.0
2017-Jun-05 15:30N 37°28' E 025°20'0 0.0
2017-Jun-05 15:00N 37°28' E 025°20'0 0.2
2017-Jun-05 14:00N 37°28' E 025°19'0 0.4
2017-Jun-05 13:30N 37°28' E 025°20'0 0.0
2017-Jun-05 13:00N 37°28' E 025°20'0 0.0
2017-Jun-05 12:30N 37°28' E 025°20'0 0.0
2017-Jun-05 12:00N 37°28' E 025°20'0 0.0
2017-Jun-05 11:30N 37°28' E 025°20'0 0.0
2017-Jun-05 11:00N 37°28' E 025°20'0 0.0
2017-Jun-05 10:30N 37°28' E 025°20'0 0.0
2017-Jun-05 10:00N 37°28' E 025°20'0 0.0
2017-Jun-05 09:30N 37°28' E 025°20'0 0.0
2017-Jun-05 09:00N 37°28' E 025°20'0 0.0
2017-Jun-05 08:30N 37°28' E 025°20'0 0.0
2017-Jun-05 08:00N 37°28' E 025°20'0 0.0
2017-Jun-05 07:30N 37°28' E 025°20'0 0.0
2017-Jun-05 07:00N 37°28' E 025°20'0 0.0
2017-Jun-05 03:37N 37°28' E 025°20'0 0.0
2017-Jun-05 03:30N 37°28' E 025°20'0 0.0
2017-Jun-05 03:00N 37°28' E 025°20'0 0.0
2017-Jun-05 02:30N 37°28' E 025°20'0 0.0
2017-Jun-05 02:00N 37°28' E 025°20'0 0.0
2017-Jun-05 01:30N 37°28' E 025°20'0 0.0
2017-Jun-05 01:00N 37°28' E 025°20'0 0.0
2017-Jun-05 00:30N 37°28' E 025°20'0 0.0
2017-Jun-05 00:00N 37°28' E 025°20'0 0.0
2017-Jun-04 23:30N 37°28' E 025°20'0 0.0
2017-Jun-04 23:00N 37°28' E 025°20'0 0.0
2017-Jun-04 22:30N 37°28' E 025°20'0 0.0
2017-Jun-04 22:00N 37°28' E 025°20'0 0.0
2017-Jun-04 21:30N 37°28' E 025°20'0 0.0
2017-Jun-04 21:00N 37°28' E 025°20'0 0.0
2017-Jun-04 20:30N 37°28' E 025°20'0 0.0
2017-Jun-04 20:00N 37°28' E 025°20'0 0.0
2017-Jun-04 19:30N 37°28' E 025°20'0 0.0
2017-Jun-04 19:00N 37°28' E 025°20'0 0.0
2017-Jun-04 18:30N 37°28' E 025°20'0 0.0
2017-Jun-04 18:00N 37°28' E 025°20'0 0.0
2017-Jun-04 17:30N 37°28' E 025°20'0 0.0
2017-Jun-04 17:00N 37°28' E 025°20'0 0.0
2017-Jun-04 16:30N 37°28' E 025°20'0 0.0
2017-Jun-04 16:00N 37°28' E 025°20'0 0.0
2017-Jun-04 15:30N 37°28' E 025°20'0 0.0
2017-Jun-04 15:00N 37°28' E 025°20'0 0.0
2017-Jun-04 14:00N 37°28' E 025°20'0 0.0
2017-Jun-04 13:30N 37°28' E 025°20'0 0.0
2017-Jun-04 13:00N 37°28' E 025°20'0 0.0
2017-Jun-04 12:30N 37°28' E 025°20'0 0.0
2017-Jun-04 12:00N 37°28' E 025°20'0 0.0
2017-Jun-04 11:30N 37°28' E 025°20'0 0.0
2017-Jun-04 11:00N 37°28' E 025°20'0 0.0
2017-Jun-04 10:30N 37°28' E 025°20'0 0.0
2017-Jun-04 10:00N 37°28' E 025°20'0 0.6
2017-Jun-04 09:30N 37°28' E 025°19'  

Dump ship's entire track history